Sanpo Maru No.5 — JL6343 — position and weather

sailwx.info

Track history (hours):
 
Tides and Currents Weather Stations Pressure Air Temp Water Temp Dewpoint Dewpoint Depression Visibility Wind Speed Wind Dir Waves Ship Positions

Sanpo Maru No.5

Last reported at 2017-Apr-25 23:58 UTC. Time now 2017-Apr-26 02:10 UTC.
Position N 35°35' E 139°52'.

Length 71 m; draft 4.5 m.

Type: Ship. MMSI: 431500283.

Date/timePositionNaut miles runAvg speedWind from/ knotsBaromVisibWave heightAir tempDewpointWater temp
2017-Apr-25 23:58N 35°35' E 139°52'0 0.0
2017-Apr-25 23:04N 35°35' E 139°52'0 0.0
2017-Apr-25 22:40N 35°35' E 139°52'0 0.0
2017-Apr-25 22:16N 35°35' E 139°52'0 0.0
2017-Apr-25 21:40N 35°35' E 139°52'0 0.0
2017-Apr-25 21:10N 35°35' E 139°52'0 0.0
2017-Apr-25 17:49N 35°35' E 139°52'0 0.0
2017-Apr-25 12:34N 35°35' E 139°52'0 0.0
2017-Apr-25 12:10N 35°35' E 139°52'0 0.0
2017-Apr-25 11:58N 35°35' E 139°52'0 0.0
2017-Apr-25 08:46N 35°35' E 139°52'0 1.5
2017-Apr-25 08:30N 35°35' E 139°52'3 5.2
2017-Apr-25 07:58N 35°37' E 139°50'0 0.0
2017-Apr-25 07:25N 35°37' E 139°50'0 0.0
2017-Apr-25 06:58N 35°37' E 139°50'0 0.0
2017-Apr-25 06:28N 35°37' E 139°50'0 0.0
2017-Apr-25 05:58N 35°37' E 139°50'0 0.0
2017-Apr-25 05:25N 35°37' E 139°50'0 0.0
2017-Apr-25 04:49N 35°37' E 139°50'2 4.3
2017-Apr-25 04:26N 35°36' E 139°50'1 1.0
2017-Apr-25 03:30N 35°35' E 139°52'0 0.0
2017-Apr-25 02:54N 35°35' E 139°52'5 7.1
2017-Apr-25 02:14N 35°31' E 139°51'210.7
2017-Apr-25 02:01N 35°30' E 139°48'2 3.5
2017-Apr-25 01:29N 35°31' E 139°46'0 0.0
2017-Apr-25 00:56N 35°31' E 139°46'0 0.0
2017-Apr-25 00:29N 35°31' E 139°46'0 0.0
2017-Apr-24 23:59N 35°31' E 139°46'0 0.0
2017-Apr-24 23:29N 35°31' E 139°46'0 0.0
2017-Apr-24 23:00N 35°31' E 139°46'0 0.0
2017-Apr-24 22:30N 35°31' E 139°46'0 0.1
2017-Apr-24 21:57N 35°31' E 139°46'3 5.9
2017-Apr-24 21:30N 35°30' E 139°49'1 1.0
2017-Apr-24 20:54N 35°29' E 139°49'0 0.0
2017-Apr-24 20:30N 35°29' E 139°49'0 0.0
2017-Apr-24 20:00N 35°29' E 139°49'0 0.1
2017-Apr-24 19:30N 35°29' E 139°49'4 8.0
2017-Apr-24 19:00N 35°26' E 139°47'511.0
2017-Apr-24 18:30N 35°21' E 139°45'510.4
2017-Apr-24 18:00N 35°16' E 139°47'611.0
2017-Apr-24 17:30N 35°10' E 139°47'510.8
2017-Apr-24 17:00N 35°05' E 139°45'611.1
2017-Apr-24 16:30N 34°59' E 139°44'8 0.2
2017-Apr-23 09:48N 34°53' E 139°48'6 9.1
2017-Apr-23 09:11N 34°57' E 139°44'410.0
2017-Apr-23 08:48N 35°01' E 139°44'310.2
2017-Apr-23 08:30N 35°04' E 139°45'510.0
2017-Apr-23 08:00N 35°09' E 139°45'510.5
2017-Apr-23 07:30N 35°14' E 139°47'510.5
2017-Apr-23 07:00N 35°19' E 139°44'510.1
2017-Apr-23 06:30N 35°24' E 139°43'510.2
2017-Apr-23 06:00N 35°27' E 139°47'510.3
2017-Apr-23 05:30N 35°30' E 139°53'510.5
2017-Apr-23 05:00N 35°30' E 139°59'2 0.6
2017-Apr-23 02:27N 35°29' E 140°01'410.0
2017-Apr-23 02:00N 35°30' E 139°55'510.0
2017-Apr-23 01:30N 35°30' E 139°49'3 6.0
2017-Apr-23 01:00N 35°31' E 139°46'0 0.0
2017-Apr-23 00:30N 35°31' E 139°46'0 0.0
2017-Apr-23 00:00N 35°31' E 139°46'0 0.0
2017-Apr-22 23:30N 35°31' E 139°46'0 0.0
2017-Apr-22 23:00N 35°31' E 139°46'0 0.0
2017-Apr-22 22:30N 35°31' E 139°46'0 0.0
2017-Apr-22 22:00N 35°31' E 139°46'3 6.0
2017-Apr-22 21:30N 35°30' E 139°49'0 0.4
2017-Apr-22 21:00N 35°29' E 139°49'0 0.0
2017-Apr-22 20:30N 35°29' E 139°49'0 0.0
2017-Apr-22 20:00N 35°29' E 139°49'0 0.3
2017-Apr-22 19:31N 35°29' E 139°49'4 7.7
2017-Apr-22 19:01N 35°26' E 139°47'4 8.4
2017-Apr-22 18:31N 35°22' E 139°45'4 8.1
2017-Apr-22 18:00N 35°18' E 139°45'4 8.6
2017-Apr-22 17:31N 35°14' E 139°47'5 9.4
2017-Apr-22 17:00N 35°09' E 139°46'5 9.3
2017-Apr-22 16:30N 35°05' E 139°45'5 9.4
2017-Apr-22 16:00N 35°00' E 139°44'5 9.7
2017-Apr-22 15:28N 34°55' E 139°45'4 0.1
2017-Apr-20 16:49N 34°52' E 139°49'9 9.9
2017-Apr-20 15:56N 34°60' E 139°44'410.0
2017-Apr-20 15:30N 35°04' E 139°45'510.2
2017-Apr-20 15:00N 35°09' E 139°46'510.3
2017-Apr-20 14:30N 35°14' E 139°46'10 9.7
2017-Apr-20 13:30N 35°24' E 139°43'510.0
2017-Apr-20 13:00N 35°27' E 139°47'510.1
2017-Apr-20 12:30N 35°30' E 139°52'7 1.7
2017-Apr-20 08:34N 35°30' E 140°01'510.7
2017-Apr-20 08:06N 35°29' E 139°55'211.0
2017-Apr-20 07:56N 35°29' E 139°52'510.9
2017-Apr-20 07:29N 35°25' E 139°48'510.7
2017-Apr-20 07:00N 35°21' E 139°45'5 9.5
2017-Apr-20 06:30N 35°16' E 139°46'510.0
2017-Apr-20 06:00N 35°11' E 139°47'510.7
2017-Apr-20 05:30N 35°06' E 139°46'510.8
2017-Apr-20 05:00N 35°01' E 139°44'6 9.5
2017-Apr-20 04:19N 34°54' E 139°46'  
2017-Apr-16 07:11N 34°58' E 139°44'3 9.6
2017-Apr-16 06:53N 35°01' E 139°45'4 9.8
2017-Apr-16 06:30N 35°05' E 139°45'5 9.7
2017-Apr-16 06:00N 35°10' E 139°46'5 9.6
2017-Apr-16 05:30N 35°15' E 139°46'5 9.7
2017-Apr-16 05:00N 35°19' E 139°43'5 9.4
2017-Apr-16 04:31N 35°23' E 139°42'5 9.9
2017-Apr-16 04:00N 35°27' E 139°47'5 9.9
2017-Apr-16 03:31N 35°30' E 139°52'5 9.9
2017-Apr-16 02:57N 35°30' E 139°58'3 1.4
2017-Apr-16 00:56N 35°30' E 140°02'  
Track history (hours):
 
Tides and Currents Weather Stations Pressure Air Temp Water Temp Dewpoint Dewpoint Depression Visibility Wind Speed Wind Dir Waves Ship Positions

Sanpo Maru No.5

Last reported at 2017-Apr-25 23:58 UTC. Time now 2017-Apr-26 02:10 UTC.
Position N 35°35' E 139°52'.

Length 71 m; draft 4.5 m.

Type: Ship. MMSI: 431500283.

Date/timePositionNaut miles runAvg speedWind from/ knotsBaromVisibWave heightAir tempDewpointWater temp
2017-Apr-25 23:58N 35°35' E 139°52'0 0.0
2017-Apr-25 23:04N 35°35' E 139°52'0 0.0
2017-Apr-25 22:40N 35°35' E 139°52'0 0.0
2017-Apr-25 22:16N 35°35' E 139°52'0 0.0
2017-Apr-25 21:40N 35°35' E 139°52'0 0.0
2017-Apr-25 21:10N 35°35' E 139°52'0 0.0
2017-Apr-25 17:49N 35°35' E 139°52'0 0.0
2017-Apr-25 12:34N 35°35' E 139°52'0 0.0
2017-Apr-25 12:10N 35°35' E 139°52'0 0.0
2017-Apr-25 11:58N 35°35' E 139°52'0 0.0
2017-Apr-25 08:46N 35°35' E 139°52'0 1.5
2017-Apr-25 08:30N 35°35' E 139°52'3 5.2
2017-Apr-25 07:58N 35°37' E 139°50'0 0.0
2017-Apr-25 07:25N 35°37' E 139°50'0 0.0
2017-Apr-25 06:58N 35°37' E 139°50'0 0.0
2017-Apr-25 06:28N 35°37' E 139°50'0 0.0
2017-Apr-25 05:58N 35°37' E 139°50'0 0.0
2017-Apr-25 05:25N 35°37' E 139°50'0 0.0
2017-Apr-25 04:49N 35°37' E 139°50'2 4.3
2017-Apr-25 04:26N 35°36' E 139°50'1 1.0
2017-Apr-25 03:30N 35°35' E 139°52'0 0.0
2017-Apr-25 02:54N 35°35' E 139°52'5 7.1
2017-Apr-25 02:14N 35°31' E 139°51'210.7
2017-Apr-25 02:01N 35°30' E 139°48'2 3.5
2017-Apr-25 01:29N 35°31' E 139°46'0 0.0
2017-Apr-25 00:56N 35°31' E 139°46'0 0.0
2017-Apr-25 00:29N 35°31' E 139°46'0 0.0
2017-Apr-24 23:59N 35°31' E 139°46'0 0.0
2017-Apr-24 23:29N 35°31' E 139°46'0 0.0
2017-Apr-24 23:00N 35°31' E 139°46'0 0.0
2017-Apr-24 22:30N 35°31' E 139°46'0 0.1
2017-Apr-24 21:57N 35°31' E 139°46'3 5.9
2017-Apr-24 21:30N 35°30' E 139°49'1 1.0
2017-Apr-24 20:54N 35°29' E 139°49'0 0.0
2017-Apr-24 20:30N 35°29' E 139°49'0 0.0
2017-Apr-24 20:00N 35°29' E 139°49'0 0.1
2017-Apr-24 19:30N 35°29' E 139°49'4 8.0
2017-Apr-24 19:00N 35°26' E 139°47'511.0
2017-Apr-24 18:30N 35°21' E 139°45'510.4
2017-Apr-24 18:00N 35°16' E 139°47'611.0
2017-Apr-24 17:30N 35°10' E 139°47'510.8
2017-Apr-24 17:00N 35°05' E 139°45'611.1
2017-Apr-24 16:30N 34°59' E 139°44'8 0.2
2017-Apr-23 09:48N 34°53' E 139°48'6 9.1
2017-Apr-23 09:11N 34°57' E 139°44'410.0
2017-Apr-23 08:48N 35°01' E 139°44'310.2
2017-Apr-23 08:30N 35°04' E 139°45'510.0
2017-Apr-23 08:00N 35°09' E 139°45'510.5
2017-Apr-23 07:30N 35°14' E 139°47'510.5
2017-Apr-23 07:00N 35°19' E 139°44'510.1
2017-Apr-23 06:30N 35°24' E 139°43'510.2
2017-Apr-23 06:00N 35°27' E 139°47'510.3
2017-Apr-23 05:30N 35°30' E 139°53'510.5
2017-Apr-23 05:00N 35°30' E 139°59'2 0.6
2017-Apr-23 02:27N 35°29' E 140°01'410.0
2017-Apr-23 02:00N 35°30' E 139°55'510.0
2017-Apr-23 01:30N 35°30' E 139°49'3 6.0
2017-Apr-23 01:00N 35°31' E 139°46'0 0.0
2017-Apr-23 00:30N 35°31' E 139°46'0 0.0
2017-Apr-23 00:00N 35°31' E 139°46'0 0.0
2017-Apr-22 23:30N 35°31' E 139°46'0 0.0
2017-Apr-22 23:00N 35°31' E 139°46'0 0.0
2017-Apr-22 22:30N 35°31' E 139°46'0 0.0
2017-Apr-22 22:00N 35°31' E 139°46'3 6.0
2017-Apr-22 21:30N 35°30' E 139°49'0 0.4
2017-Apr-22 21:00N 35°29' E 139°49'0 0.0
2017-Apr-22 20:30N 35°29' E 139°49'0 0.0
2017-Apr-22 20:00N 35°29' E 139°49'0 0.3
2017-Apr-22 19:31N 35°29' E 139°49'4 7.7
2017-Apr-22 19:01N 35°26' E 139°47'4 8.4
2017-Apr-22 18:31N 35°22' E 139°45'4 8.1
2017-Apr-22 18:00N 35°18' E 139°45'4 8.6
2017-Apr-22 17:31N 35°14' E 139°47'5 9.4
2017-Apr-22 17:00N 35°09' E 139°46'5 9.3
2017-Apr-22 16:30N 35°05' E 139°45'5 9.4
2017-Apr-22 16:00N 35°00' E 139°44'5 9.7
2017-Apr-22 15:28N 34°55' E 139°45'4 0.1
2017-Apr-20 16:49N 34°52' E 139°49'9 9.9
2017-Apr-20 15:56N 34°60' E 139°44'410.0
2017-Apr-20 15:30N 35°04' E 139°45'510.2
2017-Apr-20 15:00N 35°09' E 139°46'510.3
2017-Apr-20 14:30N 35°14' E 139°46'10 9.7
2017-Apr-20 13:30N 35°24' E 139°43'510.0
2017-Apr-20 13:00N 35°27' E 139°47'510.1
2017-Apr-20 12:30N 35°30' E 139°52'7 1.7
2017-Apr-20 08:34N 35°30' E 140°01'510.7
2017-Apr-20 08:06N 35°29' E 139°55'211.0
2017-Apr-20 07:56N 35°29' E 139°52'510.9
2017-Apr-20 07:29N 35°25' E 139°48'510.7
2017-Apr-20 07:00N 35°21' E 139°45'5 9.5
2017-Apr-20 06:30N 35°16' E 139°46'510.0
2017-Apr-20 06:00N 35°11' E 139°47'510.7
2017-Apr-20 05:30N 35°06' E 139°46'510.8
2017-Apr-20 05:00N 35°01' E 139°44'6 9.5
2017-Apr-20 04:19N 34°54' E 139°46'  
2017-Apr-16 07:11N 34°58' E 139°44'3 9.6
2017-Apr-16 06:53N 35°01' E 139°45'4 9.8
2017-Apr-16 06:30N 35°05' E 139°45'5 9.7
2017-Apr-16 06:00N 35°10' E 139°46'5 9.6
2017-Apr-16 05:30N 35°15' E 139°46'5 9.7
2017-Apr-16 05:00N 35°19' E 139°43'5 9.4
2017-Apr-16 04:31N 35°23' E 139°42'5 9.9
2017-Apr-16 04:00N 35°27' E 139°47'5 9.9
2017-Apr-16 03:31N 35°30' E 139°52'5 9.9
2017-Apr-16 02:57N 35°30' E 139°58'3 1.4
2017-Apr-16 00:56N 35°30' E 140°02'  

Dump ship's entire track history